Terminal Aerodrome Forecast
Issued by NWS Springfield, MO

Home | Current Version | Previous Version | Text Only | Print | Product List | Glossary On
Versions: 1 2 3 4 5 6 7 8 9 10 11 12 13 14 15 16 17 18 19 20 21 22 23 24 25 26 27 28 29
938
FTUS43 KSGF 262320
TAFSGF
TAF
KSGF 262320Z 2700/2724 32010KT 3SM -DZ BR BKN006 OVC010
     FM270400 30009KT 6SM BR SCT007 OVC012
     FM270800 30008KT P6SM BKN025
     FM271200 28004KT P6SM SCT200
     FM272300 14007KT P6SM BKN110=

USA.gov is the U.S. government's official web portal to all federal, state and local government web resources and services.